Pelagos — SZSW — position and weather

sailwx.info

Track history (hours):
 
Tides and Currents Weather Stations Pressure Air Temp Water Temp Dewpoint Dewpoint Depression Visibility Wind Speed Wind Dir Waves Ship Positions

Pelagos

Last reported at 2015-Jul-02 04:33 UTC. Time now 2015-Jul-02 05:16 UTC.
Position N 59°43' E 024°18'.

Length 249 m; draft 7.5 m.

Type: Ship. MMSI: 240335000.

Date/timePositionNaut miles runAvg speedWind from/ knotsBaromVisibWave heightAir tempDewpointWater temp
2015-Jul-02 04:33N 59°43' E 024°18'9 9.0
2015-Jul-02 03:33N 59°40' E 024°01'9 9.1
2015-Jul-02 02:33N 59°37' E 023°44'9 9.3
2015-Jul-02 01:33N 59°34' E 023°27'9 9.4
2015-Jul-02 00:33N 59°31' E 023°09'9 9.3
2015-Jul-01 23:33N 59°28' E 022°52'10 9.2
2015-Jul-01 22:28N 59°24' E 022°33'11 9.2
2015-Jul-01 21:13N 59°17' E 022°16'6 9.0
2015-Jul-01 20:33N 59°13' E 022°07'153 9.0
2015-Jul-01 03:33N 57°13' E 019°05'12 8.9
2015-Jul-01 02:15N 57°04' E 018°53'126 9.1
2015-Jun-30 12:18N 55°46' E 015°53'16 9.0
2015-Jun-30 10:33N 55°39' E 015°28'9 9.0
2015-Jun-30 09:33N 55°34' E 015°14'9 8.9
2015-Jun-30 08:33N 55°30' E 015°01'9 9.1
2015-Jun-30 07:33N 55°26' E 014°46'19 9.4
2015-Jun-30 05:33N 55°13' E 014°23'10 9.6
2015-Jun-30 04:30N 55°10' E 014°06'9 9.8
2015-Jun-30 03:32N 55°11' E 013°50'14 9.8
2015-Jun-30 02:06N 55°12' E 013°25'510.1
2015-Jun-30 01:33N 55°13' E 013°16'1010.0
2015-Jun-30 00:33N 55°14' E 012°58'1010.2
2015-Jun-29 23:33N 55°17' E 012°41'9 8.6
2015-Jun-29 22:33N 55°25' E 012°39'9 8.6
2015-Jun-29 21:33N 55°33' E 012°47'9 8.7
2015-Jun-29 20:34N 55°40' E 012°56'1413.9
2015-Jun-29 19:33N 55°52' E 012°44'1312.8
2015-Jun-29 18:33N 56°04' E 012°37'9 9.5
2015-Jun-29 17:33N 56°10' E 012°24'9 9.2
2015-Jun-29 16:33N 56°15' E 012°10'9 8.6
2015-Jun-29 15:33N 56°22' E 012°01'9 9.1
2015-Jun-29 14:33N 56°31' E 011°58'10 9.5
2015-Jun-29 13:33N 56°40' E 011°54'9 9.2
2015-Jun-29 12:33N 56°49' E 011°49'9 9.2
2015-Jun-29 11:33N 56°58' E 011°44'9 9.0
2015-Jun-29 10:33N 57°06' E 011°38'9 9.0
2015-Jun-29 09:33N 57°15' E 011°32'9 9.2
2015-Jun-29 08:33N 57°23' E 011°26'9 8.6
2015-Jun-29 07:33N 57°31' E 011°18'9 9.2
2015-Jun-29 06:33N 57°37' E 011°05'9 8.9
2015-Jun-29 05:33N 57°43' E 010°53'9 9.0
2015-Jun-29 04:33N 57°47' E 010°37'262 9.3
2015-Jun-28 00:33N 54°38' E 005°13'9 9.2
2015-Jun-27 23:32N 54°30' E 005°04'9 9.2
2015-Jun-27 22:33N 54°22' E 004°56'9 9.2
2015-Jun-27 21:33N 54°14' E 004°47'9 9.3
2015-Jun-27 20:33N 54°06' E 004°41'9 9.3
2015-Jun-27 19:33N 53°57' E 004°36'9 9.2
2015-Jun-27 18:33N 53°50' E 004°27'10 9.4
2015-Jun-27 17:32N 53°43' E 004°15'12711.0
2015-Jun-27 06:04N 51°51' E 002°38'712.8
2015-Jun-27 05:33N 51°45' E 002°35'1713.1
2015-Jun-27 04:16N 51°32' E 002°17'912.9
2015-Jun-27 03:33N 51°24' E 002°11'1312.7
2015-Jun-27 02:33N 51°13' E 002°00'1313.4
2015-Jun-27 01:33N 51°06' E 001°42'1413.5
2015-Jun-27 00:33N 50°55' E 001°29'5310.6
2015-Jun-26 19:33N 50°23' E 000°22'2410.6
2015-Jun-26 17:19N 50°24' W 000°15'911.7
2015-Jun-26 16:33N 50°29' W 000°27'1212.0
2015-Jun-26 15:33N 50°35' W 000°44'1110.9
2015-Jun-26 14:33N 50°42' W 000°57'1313.2
2015-Jun-26 13:33N 50°47' W 001°17'4 0.6
2015-Jun-26 07:07N 50°50' W 001°20'0 0.0
2015-Jun-26 06:16N 50°50' W 001°20'0 0.0
2015-Jun-26 03:19N 50°50' W 001°20'0 0.0
2015-Jun-26 01:28N 50°50' W 001°20'0 0.0
2015-Jun-26 00:31N 50°50' W 001°20'0 0.0
2015-Jun-25 23:19N 50°50' W 001°20'0 0.0
2015-Jun-25 22:28N 50°50' W 001°20'0 0.0
2015-Jun-25 18:25N 50°50' W 001°20'0 0.0
2015-Jun-25 17:22N 50°50' W 001°20'0 0.0
2015-Jun-25 16:25N 50°50' W 001°20'0 0.0
2015-Jun-25 10:31N 50°50' W 001°20'  
2015-Jun-22 19:31N 50°34' W 001°04'0 0.0
2015-Jun-22 18:31N 50°34' W 001°04'0 0.0
2015-Jun-22 17:31N 50°34' W 001°04'0 0.0
2015-Jun-22 16:31N 50°34' W 001°04'0 0.2
2015-Jun-22 15:31N 50°34' W 001°04'0 0.4
2015-Jun-22 14:28N 50°34' W 001°03'0 0.0
2015-Jun-22 10:19N 50°34' W 001°03'0 0.0
2015-Jun-22 09:25N 50°34' W 001°03'0 0.1
2015-Jun-22 08:28N 50°34' W 001°03'0 0.3
2015-Jun-22 07:31N 50°34' W 001°03'0 0.0
2015-Jun-22 06:31N 50°34' W 001°04'0 0.2
2015-Jun-22 05:31N 50°34' W 001°03'  
Track history (hours):
 
Tides and Currents Weather Stations Pressure Air Temp Water Temp Dewpoint Dewpoint Depression Visibility Wind Speed Wind Dir Waves Ship Positions

Pelagos

Last reported at 2015-Jul-02 04:33 UTC. Time now 2015-Jul-02 05:16 UTC.
Position N 59°43' E 024°18'.

Length 249 m; draft 7.5 m.

Type: Ship. MMSI: 240335000.

Date/timePositionNaut miles runAvg speedWind from/ knotsBaromVisibWave heightAir tempDewpointWater temp
2015-Jul-02 04:33N 59°43' E 024°18'9 9.0
2015-Jul-02 03:33N 59°40' E 024°01'9 9.1
2015-Jul-02 02:33N 59°37' E 023°44'9 9.3
2015-Jul-02 01:33N 59°34' E 023°27'9 9.4
2015-Jul-02 00:33N 59°31' E 023°09'9 9.3
2015-Jul-01 23:33N 59°28' E 022°52'10 9.2
2015-Jul-01 22:28N 59°24' E 022°33'11 9.2
2015-Jul-01 21:13N 59°17' E 022°16'6 9.0
2015-Jul-01 20:33N 59°13' E 022°07'153 9.0
2015-Jul-01 03:33N 57°13' E 019°05'12 8.9
2015-Jul-01 02:15N 57°04' E 018°53'126 9.1
2015-Jun-30 12:18N 55°46' E 015°53'16 9.0
2015-Jun-30 10:33N 55°39' E 015°28'9 9.0
2015-Jun-30 09:33N 55°34' E 015°14'9 8.9
2015-Jun-30 08:33N 55°30' E 015°01'9 9.1
2015-Jun-30 07:33N 55°26' E 014°46'19 9.4
2015-Jun-30 05:33N 55°13' E 014°23'10 9.6
2015-Jun-30 04:30N 55°10' E 014°06'9 9.8
2015-Jun-30 03:32N 55°11' E 013°50'14 9.8
2015-Jun-30 02:06N 55°12' E 013°25'510.1
2015-Jun-30 01:33N 55°13' E 013°16'1010.0
2015-Jun-30 00:33N 55°14' E 012°58'1010.2
2015-Jun-29 23:33N 55°17' E 012°41'9 8.6
2015-Jun-29 22:33N 55°25' E 012°39'9 8.6
2015-Jun-29 21:33N 55°33' E 012°47'9 8.7
2015-Jun-29 20:34N 55°40' E 012°56'1413.9
2015-Jun-29 19:33N 55°52' E 012°44'1312.8
2015-Jun-29 18:33N 56°04' E 012°37'9 9.5
2015-Jun-29 17:33N 56°10' E 012°24'9 9.2
2015-Jun-29 16:33N 56°15' E 012°10'9 8.6
2015-Jun-29 15:33N 56°22' E 012°01'9 9.1
2015-Jun-29 14:33N 56°31' E 011°58'10 9.5
2015-Jun-29 13:33N 56°40' E 011°54'9 9.2
2015-Jun-29 12:33N 56°49' E 011°49'9 9.2
2015-Jun-29 11:33N 56°58' E 011°44'9 9.0
2015-Jun-29 10:33N 57°06' E 011°38'9 9.0
2015-Jun-29 09:33N 57°15' E 011°32'9 9.2
2015-Jun-29 08:33N 57°23' E 011°26'9 8.6
2015-Jun-29 07:33N 57°31' E 011°18'9 9.2
2015-Jun-29 06:33N 57°37' E 011°05'9 8.9
2015-Jun-29 05:33N 57°43' E 010°53'9 9.0
2015-Jun-29 04:33N 57°47' E 010°37'262 9.3
2015-Jun-28 00:33N 54°38' E 005°13'9 9.2
2015-Jun-27 23:32N 54°30' E 005°04'9 9.2
2015-Jun-27 22:33N 54°22' E 004°56'9 9.2
2015-Jun-27 21:33N 54°14' E 004°47'9 9.3
2015-Jun-27 20:33N 54°06' E 004°41'9 9.3
2015-Jun-27 19:33N 53°57' E 004°36'9 9.2
2015-Jun-27 18:33N 53°50' E 004°27'10 9.4
2015-Jun-27 17:32N 53°43' E 004°15'12711.0
2015-Jun-27 06:04N 51°51' E 002°38'712.8
2015-Jun-27 05:33N 51°45' E 002°35'1713.1
2015-Jun-27 04:16N 51°32' E 002°17'912.9
2015-Jun-27 03:33N 51°24' E 002°11'1312.7
2015-Jun-27 02:33N 51°13' E 002°00'1313.4
2015-Jun-27 01:33N 51°06' E 001°42'1413.5
2015-Jun-27 00:33N 50°55' E 001°29'5310.6
2015-Jun-26 19:33N 50°23' E 000°22'2410.6
2015-Jun-26 17:19N 50°24' W 000°15'911.7
2015-Jun-26 16:33N 50°29' W 000°27'1212.0
2015-Jun-26 15:33N 50°35' W 000°44'1110.9
2015-Jun-26 14:33N 50°42' W 000°57'1313.2
2015-Jun-26 13:33N 50°47' W 001°17'4 0.6
2015-Jun-26 07:07N 50°50' W 001°20'0 0.0
2015-Jun-26 06:16N 50°50' W 001°20'0 0.0
2015-Jun-26 03:19N 50°50' W 001°20'0 0.0
2015-Jun-26 01:28N 50°50' W 001°20'0 0.0
2015-Jun-26 00:31N 50°50' W 001°20'0 0.0
2015-Jun-25 23:19N 50°50' W 001°20'0 0.0
2015-Jun-25 22:28N 50°50' W 001°20'0 0.0
2015-Jun-25 18:25N 50°50' W 001°20'0 0.0
2015-Jun-25 17:22N 50°50' W 001°20'0 0.0
2015-Jun-25 16:25N 50°50' W 001°20'0 0.0
2015-Jun-25 10:31N 50°50' W 001°20'  
2015-Jun-22 19:31N 50°34' W 001°04'0 0.0
2015-Jun-22 18:31N 50°34' W 001°04'0 0.0
2015-Jun-22 17:31N 50°34' W 001°04'0 0.0
2015-Jun-22 16:31N 50°34' W 001°04'0 0.2
2015-Jun-22 15:31N 50°34' W 001°04'0 0.4
2015-Jun-22 14:28N 50°34' W 001°03'0 0.0
2015-Jun-22 10:19N 50°34' W 001°03'0 0.0
2015-Jun-22 09:25N 50°34' W 001°03'0 0.1
2015-Jun-22 08:28N 50°34' W 001°03'0 0.3
2015-Jun-22 07:31N 50°34' W 001°03'0 0.0
2015-Jun-22 06:31N 50°34' W 001°04'0 0.2
2015-Jun-22 05:31N 50°34' W 001°03'  

Dump ship's entire track history